sensor_id;sensor_type;location;lat;lon;timestamp;pressure;altitude;pressure_sealevel;temperature;humidity
74594;BME280;63097;51.872;4.460;2023-09-19T00:01:08;100869.41;;;14.75;83.82
74594;BME280;63097;51.872;4.460;2023-09-19T00:03:33;100864.38;;;14.77;83.46
74594;BME280;63097;51.872;4.460;2023-09-19T00:05:58;100866.06;;;14.88;79.16
74594;BME280;63097;51.872;4.460;2023-09-19T00:08:23;100871.09;;;14.71;81.77
74594;BME280;63097;51.872;4.460;2023-09-19T00:10:49;100873.06;;;14.75;82.55
74594;BME280;63097;51.872;4.460;2023-09-19T00:13:14;100869.41;;;14.80;82.49
74594;BME280;63097;51.872;4.460;2023-09-19T00:15:41;100882.00;;;14.57;85.79
74594;BME280;63097;51.872;4.460;2023-09-19T00:18:08;100879.75;;;14.49;83.80
74594;BME280;63097;51.872;4.460;2023-09-19T00:20:36;100878.63;;;14.45;86.26
74594;BME280;63097;51.872;4.460;2023-09-19T00:23:02;100885.88;;;14.31;87.01
74594;BME280;63097;51.872;4.460;2023-09-19T00:25:27;100888.59;;;14.21;87.66
74594;BME280;63097;51.872;4.460;2023-09-19T00:27:54;100895.91;;;14.22;90.40
74594;BME280;63097;51.872;4.460;2023-09-19T00:30:19;100895.84;;;14.12;90.98
74594;BME280;63097;51.872;4.460;2023-09-19T00:32:46;100907.03;;;14.02;92.76
74594;BME280;63097;51.872;4.460;2023-09-19T00:35:12;100900.03;;;14.04;92.04
74594;BME280;63097;51.872;4.460;2023-09-19T00:37:37;100896.69;;;14.02;91.80
74594;BME280;63097;51.872;4.460;2023-09-19T00:40:03;100904.22;;;14.02;90.99
74594;BME280;63097;51.872;4.460;2023-09-19T00:42:29;100906.72;;;13.93;93.67
74594;BME280;63097;51.872;4.460;2023-09-19T00:44:54;100901.72;;;14.10;91.03
74594;BME280;63097;51.872;4.460;2023-09-19T00:47:20;100907.06;;;14.17;90.08
74594;BME280;63097;51.872;4.460;2023-09-19T00:49:45;100896.69;;;14.02;91.84
74594;BME280;63097;51.872;4.460;2023-09-19T00:52:11;100906.44;;;14.00;93.57
74594;BME280;63097;51.872;4.460;2023-09-19T00:54:37;100914.84;;;14.00;93.13
74594;BME280;63097;51.872;4.460;2023-09-19T00:57:02;100911.97;;;13.90;94.40
74594;BME280;63097;51.872;4.460;2023-09-19T00:59:28;100914.25;;;13.93;93.56
74594;BME280;63097;51.872;4.460;2023-09-19T01:01:54;100917.94;;;14.03;91.74
74594;BME280;63097;51.872;4.460;2023-09-19T01:04:21;100920.72;;;14.03;93.64
74594;BME280;63097;51.872;4.460;2023-09-19T01:06:46;100917.06;;;13.93;93.92
74594;BME280;63097;51.872;4.460;2023-09-19T01:09:11;100931.97;;;14.19;90.26
74594;BME280;63097;51.872;4.460;2023-09-19T01:11:46;100918.59;;;14.31;90.57
74594;BME280;63097;51.872;4.460;2023-09-19T01:14:33;100914.16;;;14.40;88.07
74594;BME280;63097;51.872;4.460;2023-09-19T01:17:25;100911.91;;;14.32;89.45
74594;BME280;63097;51.872;4.460;2023-09-19T01:25:42;100917.53;;;14.47;86.56
74594;BME280;63097;51.872;4.460;2023-09-19T01:28:19;100914.47;;;14.48;86.98
74594;BME280;63097;51.872;4.460;2023-09-19T01:30:46;100920.22;;;14.22;89.68
74594;BME280;63097;51.872;4.460;2023-09-19T01:33:12;100921.97;;;14.33;88.04
74594;BME280;63097;51.872;4.460;2023-09-19T01:35:38;100920.31;;;14.42;87.03
74594;BME280;63097;51.872;4.460;2023-09-19T01:38:03;100922.06;;;14.63;84.03
74594;BME280;63097;51.872;4.460;2023-09-19T01:40:29;100921.22;;;14.57;84.01
74594;BME280;63097;51.872;4.460;2023-09-19T01:43:03;100922.88;;;14.53;84.54
74594;BME280;63097;51.872;4.460;2023-09-19T01:45:53;100919.78;;;14.60;83.37
74594;BME280;63097;51.872;4.460;2023-09-19T01:48:35;100927.63;;;14.43;85.69
74594;BME280;63097;51.872;4.460;2023-09-19T01:51:08;100922.81;;;14.38;86.15
74594;BME280;63097;51.872;4.460;2023-09-19T01:54:08;100919.75;;;14.40;85.02
74594;BME280;63097;51.872;4.460;2023-09-19T01:56:42;100926.44;;;14.29;86.69
74594;BME280;63097;51.872;4.460;2023-09-19T01:59:13;100921.69;;;14.29;86.45
74594;BME280;63097;51.872;4.460;2023-09-19T02:01:42;100918.59;;;14.31;85.36
74594;BME280;63097;51.872;4.460;2023-09-19T02:04:10;100918.59;;;14.31;86.54
74594;BME280;63097;51.872;4.460;2023-09-19T02:06:38;100917.72;;;14.20;86.71
74594;BME280;63097;51.872;4.460;2023-09-19T02:09:04;100926.38;;;14.13;87.43
74594;BME280;63097;51.872;4.460;2023-09-19T02:11:29;100933.34;;;14.16;87.15
74594;BME280;63097;51.872;4.460;2023-09-19T02:13:54;100914.63;;;14.17;87.25
74594;BME280;63097;51.872;4.460;2023-09-19T02:16:20;100928.69;;;14.32;85.57
74594;BME280;63097;51.872;4.460;2023-09-19T02:18:45;100929.47;;;14.17;88.05
74594;BME280;63097;51.872;4.460;2023-09-19T02:21:11;100923.53;;;14.08;88.48
74594;BME280;63097;51.872;4.460;2023-09-19T02:23:36;100927.75;;;14.06;88.66
74594;BME280;63097;51.872;4.460;2023-09-19T02:26:01;100931.41;;;14.17;87.76
74594;BME280;63097;51.872;4.460;2023-09-19T02:28:26;100937.28;;;14.20;87.91
74594;BME280;63097;51.872;4.460;2023-09-19T02:30:52;100932.81;;;14.19;88.00
74594;BME280;63097;51.872;4.460;2023-09-19T02:33:17;100940.09;;;14.15;89.72
74594;BME280;63097;51.872;4.460;2023-09-19T02:35:42;100940.19;;;14.30;88.13
74594;BME280;63097;51.872;4.460;2023-09-19T02:38:08;100948.13;;;14.06;91.76
74594;BME280;63097;51.872;4.460;2023-09-19T02:40:33;100933.16;;;14.38;89.00
74594;BME280;63097;51.872;4.460;2023-09-19T02:42:59;100932.06;;;14.34;89.21
74594;BME280;63097;51.872;4.460;2023-09-19T02:45:24;100935.63;;;14.24;90.81
74594;BME280;63097;51.872;4.460;2023-09-19T02:47:49;100943.97;;;14.14;92.91
74594;BME280;63097;51.872;4.460;2023-09-19T02:50:15;100939.53;;;14.23;92.12
74594;BME280;63097;51.872;4.460;2023-09-19T02:52:42;100936.81;;;14.33;91.15
74594;BME280;63097;51.872;4.460;2023-09-19T02:55:07;100935.97;;;14.33;91.84
74594;BME280;63097;51.872;4.460;2023-09-19T02:57:32;100934.03;;;14.38;90.95
74594;BME280;63097;51.872;4.460;2023-09-19T02:59:58;100937.56;;;14.19;92.93
74594;BME280;63097;51.872;4.460;2023-09-19T03:02:23;100936.25;;;14.36;90.57
74594;BME280;63097;51.872;4.460;2023-09-19T03:04:48;100938.44;;;14.24;91.96
74594;BME280;63097;51.872;4.460;2023-09-19T03:07:14;100942.34;;;14.23;90.94
74594;BME280;63097;51.872;4.460;2023-09-19T03:09:39;100934.22;;;14.17;91.83
74594;BME280;63097;51.872;4.460;2023-09-19T03:12:04;100940.09;;;14.20;90.76
74594;BME280;63097;51.872;4.460;2023-09-19T03:14:30;100930.06;;;14.29;90.15
74594;BME280;63097;51.872;4.460;2023-09-19T03:16:55;100938.47;;;14.29;89.52
74594;BME280;63097;51.872;4.460;2023-09-19T03:19:20;100941.75;;;14.16;89.85
74594;BME280;63097;51.872;4.460;2023-09-19T03:21:45;100949.84;;;14.12;89.83
74594;BME280;63097;51.872;4.460;2023-09-19T03:24:11;100944.03;;;14.19;89.76
74594;BME280;63097;51.872;4.460;2023-09-19T03:26:36;100939.81;;;14.22;88.63
74594;BME280;63097;51.872;4.460;2023-09-19T03:29:03;100946.47;;;14.10;90.14
74594;BME280;63097;51.872;4.460;2023-09-19T03:31:29;100943.97;;;14.14;89.09
74594;BME280;63097;51.872;4.460;2023-09-19T03:33:54;100946.50;;;14.15;88.89
74594;BME280;63097;51.872;4.460;2023-09-19T03:36:19;100927.16;;;13.99;90.75
74594;BME280;63097;51.872;4.460;2023-09-19T03:38:45;100926.03;;;14.00;91.17
74594;BME280;63097;51.872;4.460;2023-09-19T03:41:10;100927.75;;;14.16;89.50
74594;BME280;63097;51.872;4.460;2023-09-19T03:43:35;100931.09;;;14.08;90.56
74594;BME280;63097;51.872;4.460;2023-09-19T03:46:01;100937.84;;;14.17;90.08
74594;BME280;63097;51.872;4.460;2023-09-19T03:48:27;100945.09;;;14.13;90.84
74594;BME280;63097;51.872;4.460;2023-09-19T03:50:52;100952.94;;;14.11;91.54
74594;BME280;63097;51.872;4.460;2023-09-19T03:53:18;100956.28;;;14.13;91.97
74594;BME280;63097;51.872;4.460;2023-09-19T03:55:44;100956.28;;;14.13;92.49
74594;BME280;63097;51.872;4.460;2023-09-19T03:58:10;100949.56;;;14.14;92.28
74594;BME280;63097;51.872;4.460;2023-09-19T04:00:35;100963.31;;;14.21;91.89
74594;BME280;63097;51.872;4.460;2023-09-19T04:03:00;100971.66;;;14.15;92.63
74594;BME280;63097;51.872;4.460;2023-09-19T04:05:26;100964.69;;;14.08;93.78
74594;BME280;63097;51.872;4.460;2023-09-19T04:07:51;100960.25;;;14.22;92.63
74594;BME280;63097;51.872;4.460;2023-09-19T04:10:16;100963.63;;;14.24;92.31
74594;BME280;63097;51.872;4.460;2023-09-19T04:12:55;100961.34;;;14.21;92.90
74594;BME280;63097;51.872;4.460;2023-09-19T04:15:20;100970.31;;;14.23;93.21
74594;BME280;63097;51.872;4.460;2023-09-19T04:17:46;100968.69;;;14.32;92.14
74594;BME280;63097;51.872;4.460;2023-09-19T04:20:11;100984.09;;;14.30;93.02
74594;BME280;63097;51.872;4.460;2023-09-19T04:22:36;100985.53;;;14.37;92.62
74594;BME280;63097;51.872;4.460;2023-09-19T04:25:02;100988.03;;;14.39;92.77
74594;BME280;63097;51.872;4.460;2023-09-19T04:27:27;100992.81;;;14.43;92.52
74594;BME280;63097;51.872;4.460;2023-09-19T04:29:52;100985.84;;;14.51;91.21
74594;BME280;63097;51.872;4.460;2023-09-19T04:32:17;100981.59;;;14.43;92.26
74594;BME280;63097;51.872;4.460;2023-09-19T04:34:43;100988.63;;;14.41;93.64
74594;BME280;63097;51.872;4.460;2023-09-19T04:37:08;100990.03;;;14.48;92.39
74594;BME280;63097;51.872;4.460;2023-09-19T04:39:33;100984.97;;;14.35;94.19
74594;BME280;63097;51.872;4.460;2023-09-19T04:41:58;100989.44;;;14.41;93.57
74594;BME280;63097;51.872;4.460;2023-09-19T04:44:24;100991.66;;;14.34;93.44
74594;BME280;63097;51.872;4.460;2023-09-19T04:46:49;100994.22;;;14.46;92.61
74594;BME280;63097;51.872;4.460;2023-09-19T04:49:14;100997.28;;;14.39;93.16
74594;BME280;63097;51.872;4.460;2023-09-19T04:51:40;100999.25;;;14.39;93.02
74594;BME280;63097;51.872;4.460;2023-09-19T04:54:05;100991.13;;;14.37;93.56
74594;BME280;63097;51.872;4.460;2023-09-19T04:56:30;100985.78;;;14.36;93.34
74594;BME280;63097;51.872;4.460;2023-09-19T04:58:56;100978.22;;;14.36;93.31
74594;BME280;63097;51.872;4.460;2023-09-19T05:01:21;100983.59;;;14.43;91.90
74594;BME280;63097;51.872;4.460;2023-09-19T05:03:46;100993.41;;;14.50;91.26
74594;BME280;63097;51.872;4.460;2023-09-19T05:06:12;100992.22;;;14.41;91.41
74594;BME280;63097;51.872;4.460;2023-09-19T05:08:37;100994.50;;;14.44;91.57
74594;BME280;63097;51.872;4.460;2023-09-19T05:11:02;100999.53;;;14.37;92.27
74594;BME280;63097;51.872;4.460;2023-09-19T05:13:27;101004.28;;;14.42;92.83
74594;BME280;63097;51.872;4.460;2023-09-19T05:15:53;101004.84;;;14.44;92.89
74594;BME280;63097;51.872;4.460;2023-09-19T05:18:18;100998.66;;;14.37;93.89
74594;BME280;63097;51.872;4.460;2023-09-19T05:20:43;101000.09;;;14.39;94.05
74594;BME280;63097;51.872;4.460;2023-09-19T05:23:09;101002.34;;;14.42;94.11
74594;BME280;63097;51.872;4.460;2023-09-19T05:25:35;101001.47;;;14.37;94.80
74594;BME280;63097;51.872;4.460;2023-09-19T05:28:01;101002.78;;;14.24;96.07
74594;BME280;63097;51.872;4.460;2023-09-19T05:30:26;100998.09;;;14.35;95.59
74594;BME280;63097;51.872;4.460;2023-09-19T05:32:51;100993.03;;;14.27;96.74
74594;BME280;63097;51.872;4.460;2023-09-19T05:35:17;100996.06;;;14.20;97.79
74594;BME280;63097;51.872;4.460;2023-09-19T05:37:42;100973.75;;;14.35;95.49
74594;BME280;63097;51.872;4.460;2023-09-19T05:40:08;100986.84;;;14.25;96.67
74594;BME280;63097;51.872;4.460;2023-09-19T05:42:33;100980.44;;;14.29;96.58
74594;BME280;63097;51.872;4.460;2023-09-19T05:44:58;100991.84;;;14.18;97.61
74594;BME280;63097;51.872;4.460;2023-09-19T05:47:23;100996.69;;;14.32;97.14
74594;BME280;63097;51.872;4.460;2023-09-19T05:49:49;101002.22;;;14.22;97.73
74594;BME280;63097;51.872;4.460;2023-09-19T05:52:14;101004.72;;;14.19;98.27
74594;BME280;63097;51.872;4.460;2023-09-19T05:54:39;101011.50;;;14.28;97.91
74594;BME280;63097;51.872;4.460;2023-09-19T05:57:05;101005.06;;;14.32;97.74
74594;BME280;63097;51.872;4.460;2023-09-19T05:59:30;101011.25;;;14.34;98.13
74594;BME280;63097;51.872;4.460;2023-09-19T06:01:55;101019.97;;;14.43;97.46
74594;BME280;63097;51.872;4.460;2023-09-19T06:04:20;101014.91;;;14.40;97.93
74594;BME280;63097;51.872;4.460;2023-09-19T06:06:46;101019.69;;;14.39;97.91
74594;BME280;63097;51.872;4.460;2023-09-19T06:09:11;101021.06;;;14.37;98.62
74594;BME280;63097;51.872;4.460;2023-09-19T06:11:36;101023.63;;;14.48;97.76
74594;BME280;63097;51.872;4.460;2023-09-19T06:14:02;101028.41;;;14.53;97.36
74594;BME280;63097;51.872;4.460;2023-09-19T06:16:29;101024.50;;;14.59;96.62
74594;BME280;63097;51.872;4.460;2023-09-19T06:18:55;101025.88;;;14.51;97.51
74594;BME280;63097;51.872;4.460;2023-09-19T06:21:20;101020.28;;;14.56;97.11
74594;BME280;63097;51.872;4.460;2023-09-19T06:23:46;101027.31;;;14.59;96.83
74594;BME280;63097;51.872;4.460;2023-09-19T06:26:11;101018.31;;;14.52;98.23
74594;BME280;63097;51.872;4.460;2023-09-19T06:28:36;101016.91;;;14.54;97.44
74594;BME280;63097;51.872;4.460;2023-09-19T06:31:02;101022.00;;;14.62;96.26
74594;BME280;63097;51.872;4.460;2023-09-19T06:33:28;101025.09;;;14.71;95.18
74594;BME280;63097;51.872;4.460;2023-09-19T06:35:53;101028.44;;;14.68;95.95
74594;BME280;63097;51.872;4.460;2023-09-19T06:38:18;101025.38;;;14.74;94.77
74594;BME280;63097;51.872;4.460;2023-09-19T06:40:44;101033.81;;;14.79;94.31
74594;BME280;63097;51.872;4.460;2023-09-19T06:43:10;101017.53;;;14.76;94.50
74594;BME280;63097;51.872;4.460;2023-09-19T06:45:35;101023.44;;;14.75;95.08
74594;BME280;63097;51.872;4.460;2023-09-19T06:48:01;101032.16;;;14.88;94.64
74594;BME280;63097;51.872;4.460;2023-09-19T06:50:26;101028.22;;;14.84;94.76
74594;BME280;63097;51.872;4.460;2023-09-19T06:52:53;101032.13;;;14.83;95.30
74594;BME280;63097;51.872;4.460;2023-09-19T06:55:19;101034.09;;;14.88;95.92
74594;BME280;63097;51.872;4.460;2023-09-19T06:57:45;101027.13;;;14.95;94.41
74594;BME280;63097;51.872;4.460;2023-09-19T07:00:11;101029.94;;;15.05;94.79
74594;BME280;63097;51.872;4.460;2023-09-19T07:02:37;101029.94;;;15.05;94.32
74594;BME280;63097;51.872;4.460;2023-09-19T07:05:02;101040.59;;;15.19;93.47
74594;BME280;63097;51.872;4.460;2023-09-19T07:07:28;101036.94;;;15.18;93.51
74594;BME280;63097;51.872;4.460;2023-09-19T07:09:53;101042.56;;;15.23;94.47
74594;BME280;63097;51.872;4.460;2023-09-19T07:12:18;101036.13;;;15.28;92.29
74594;BME280;63097;51.872;4.460;2023-09-19T07:14:43;101039.47;;;15.35;91.83
74594;BME280;63097;51.872;4.460;2023-09-19T07:17:09;101032.50;;;15.37;92.45
74594;BME280;63097;51.872;4.460;2023-09-19T07:19:34;101053.84;;;15.43;92.14
74594;BME280;63097;51.872;4.460;2023-09-19T07:21:59;101037.56;;;15.45;92.17
74594;BME280;63097;51.872;4.460;2023-09-19T07:24:25;101030.28;;;15.59;91.62
74594;BME280;63097;51.872;4.460;2023-09-19T07:26:50;101036.16;;;15.73;91.49
74594;BME280;63097;51.872;4.460;2023-09-19T07:29:15;101031.38;;;15.73;90.25
74594;BME280;63097;51.872;4.460;2023-09-19T07:31:40;101038.69;;;15.74;90.49
74594;BME280;63097;51.872;4.460;2023-09-19T07:34:06;101047.66;;;15.76;90.45
74594;BME280;63097;51.872;4.460;2023-09-19T07:36:31;101051.56;;;15.85;89.81
74594;BME280;63097;51.872;4.460;2023-09-19T07:38:56;101047.34;;;15.88;89.62
74594;BME280;63097;51.872;4.460;2023-09-19T07:41:22;101047.34;;;15.83;89.08
74594;BME280;63097;51.872;4.460;2023-09-19T07:43:47;101038.94;;;15.88;89.77
74594;BME280;63097;51.872;4.460;2023-09-19T07:46:12;101040.59;;;15.94;88.58
74594;BME280;63097;51.872;4.460;2023-09-19T07:48:38;101049.00;;;15.99;87.99
74594;BME280;63097;51.872;4.460;2023-09-19T07:51:07;101042.53;;;16.08;88.48
74594;BME280;63097;51.872;4.460;2023-09-19T07:53:33;101027.38;;;16.04;89.15
74594;BME280;63097;51.872;4.460;2023-09-19T07:56:05;101045.94;;;16.05;88.25
74594;BME280;63097;51.872;4.460;2023-09-19T07:58:31;101048.41;;;16.17;88.78
74594;BME280;63097;51.872;4.460;2023-09-19T08:01:01;101049.78;;;16.25;87.72
74594;BME280;63097;51.872;4.460;2023-09-19T08:03:27;101046.16;;;16.14;86.70
74594;BME280;63097;51.872;4.460;2023-09-19T08:05:52;101055.41;;;16.20;86.34
74594;BME280;63097;51.872;4.460;2023-09-19T08:08:17;101052.88;;;16.23;86.06
74594;BME280;63097;51.872;4.460;2023-09-19T08:10:42;101044.13;;;16.40;86.76
74594;BME280;63097;51.872;4.460;2023-09-19T08:13:08;101042.13;;;16.60;85.13
74594;BME280;63097;51.872;4.460;2023-09-19T08:15:33;101035.88;;;16.68;84.34
74594;BME280;63097;51.872;4.460;2023-09-19T08:17:58;101036.28;;;17.00;84.43
74594;BME280;63097;51.872;4.460;2023-09-19T08:20:23;101035.28;;;17.20;82.20
74594;BME280;63097;51.872;4.460;2023-09-19T08:22:53;101038.59;;;17.27;82.01
74594;BME280;63097;51.872;4.460;2023-09-19T08:25:18;101029.75;;;17.10;82.92
74594;BME280;63097;51.872;4.460;2023-09-19T08:27:47;101036.69;;;17.23;84.12
74594;BME280;63097;51.872;4.460;2023-09-19T08:30:12;101030.66;;;17.39;82.76
74594;BME280;63097;51.872;4.460;2023-09-19T08:32:38;101057.59;;;17.06;83.36
74594;BME280;63097;51.872;4.460;2023-09-19T08:35:03;101026.94;;;17.10;81.54
74594;BME280;63097;51.872;4.460;2023-09-19T08:37:29;101037.19;;;16.86;83.11
74594;BME280;63097;51.872;4.460;2023-09-19T08:39:54;101033.34;;;16.72;83.71
74594;BME280;63097;51.872;4.460;2023-09-19T08:42:19;101014.75;;;16.81;83.88
74594;BME280;63097;51.872;4.460;2023-09-19T08:44:44;101013.38;;;17.17;82.75
74594;BME280;63097;51.872;4.460;2023-09-19T08:47:11;101025.28;;;17.43;82.52
74594;BME280;63097;51.872;4.460;2023-09-19T08:50:01;101020.56;;;17.33;81.96
74594;BME280;63097;51.872;4.460;2023-09-19T08:52:42;101005.34;;;17.73;80.64
74594;BME280;63097;51.872;4.460;2023-09-19T08:55:11;101042.22;;;17.33;81.05
74594;BME280;63097;51.872;4.460;2023-09-19T08:57:38;101027.53;;;17.41;81.42
74594;BME280;63097;51.872;4.460;2023-09-19T09:00:04;101025.50;;;17.85;79.18
74594;BME280;63097;51.872;4.460;2023-09-19T09:02:31;101038.88;;;17.98;77.93
74594;BME280;63097;51.872;4.460;2023-09-19T09:04:57;101038.47;;;17.52;80.78
74594;BME280;63097;51.872;4.460;2023-09-19T09:07:24;101029.25;;;17.37;81.22
74594;BME280;63097;51.872;4.460;2023-09-19T09:09:50;101028.94;;;17.43;81.87
74594;BME280;63097;51.872;4.460;2023-09-19T09:12:16;101044.72;;;17.73;81.29
74594;BME280;63097;51.872;4.460;2023-09-19T09:14:45;101026.50;;;17.65;80.05
74594;BME280;63097;51.872;4.460;2023-09-19T09:17:11;101016.94;;;17.95;78.57
74594;BME280;63097;51.872;4.460;2023-09-19T09:19:36;101037.97;;;17.74;79.13
74594;BME280;63097;51.872;4.460;2023-09-19T09:22:06;101040.53;;;17.70;79.17
74594;BME280;63097;51.872;4.460;2023-09-19T09:24:32;101035.28;;;17.87;79.59
74594;BME280;63097;51.872;4.460;2023-09-19T09:26:57;101027.16;;;17.86;78.46
74594;BME280;63097;51.872;4.460;2023-09-19T09:34:56;101010.59;;;18.32;78.98
74594;BME280;63097;51.872;4.460;2023-09-19T09:37:23;101022.56;;;18.47;76.95
74594;BME280;63097;51.872;4.460;2023-09-19T09:42:51;101027.69;;;18.40;75.53
74594;BME280;63097;51.872;4.460;2023-09-19T09:45:19;101009.91;;;18.45;76.52
74594;BME280;63097;51.872;4.460;2023-09-19T09:47:48;101009.81;;;18.92;75.84
74594;BME280;63097;51.872;4.460;2023-09-19T09:50:13;100997.59;;;18.59;73.97
74594;BME280;63097;51.872;4.460;2023-09-19T09:52:45;101025.16;;;18.39;75.59
74594;BME280;63097;51.872;4.460;2023-09-19T09:55:11;101000.81;;;18.24;75.60
74594;BME280;63097;51.872;4.460;2023-09-19T09:57:36;101033.25;;;17.98;76.14
74594;BME280;63097;51.872;4.460;2023-09-19T10:00:02;101005.09;;;17.98;77.61
74594;BME280;63097;51.872;4.460;2023-09-19T10:02:29;101022.84;;;17.93;77.06
74594;BME280;63097;51.872;4.460;2023-09-19T10:04:56;101019.25;;;17.88;78.10
74594;BME280;63097;51.872;4.460;2023-09-19T10:07:30;101008.94;;;18.07;76.86
74594;BME280;63097;51.872;4.460;2023-09-19T10:09:55;100996.50;;;18.32;76.55
74594;BME280;63097;51.872;4.460;2023-09-19T10:12:21;100995.47;;;18.51;75.86
74594;BME280;63097;51.872;4.460;2023-09-19T10:14:46;101002.97;;;18.79;75.04
74594;BME280;63097;51.872;4.460;2023-09-19T10:17:13;100993.84;;;19.06;74.05
74594;BME280;63097;51.872;4.460;2023-09-19T10:19:54;100997.63;;;19.15;72.16
74594;BME280;63097;51.872;4.460;2023-09-19T10:22:20;100999.53;;;19.38;72.60
74594;BME280;63097;51.872;4.460;2023-09-19T10:24:47;100988.78;;;19.22;72.30
74594;BME280;63097;51.872;4.460;2023-09-19T10:27:14;100984.16;;;18.93;72.62
74594;BME280;63097;51.872;4.460;2023-09-19T10:29:39;100976.66;;;19.21;70.79
74594;BME280;63097;51.872;4.460;2023-09-19T10:32:06;100981.50;;;19.85;69.30
74594;BME280;63097;51.872;4.460;2023-09-19T10:34:38;100986.72;;;20.86;64.92
74594;BME280;63097;51.872;4.460;2023-09-19T10:37:05;100983.41;;;20.03;67.83
74594;BME280;63097;51.872;4.460;2023-09-19T10:39:32;100978.47;;;19.49;70.42
74594;BME280;63097;51.872;4.460;2023-09-19T10:42:02;100987.13;;;19.21;71.49
74594;BME280;63097;51.872;4.460;2023-09-19T10:44:28;100974.56;;;19.32;71.40
74594;BME280;63097;51.872;4.460;2023-09-19T10:46:57;100982.47;;;19.48;69.79
74594;BME280;63097;51.872;4.460;2023-09-19T10:49:22;100979.34;;;19.31;70.30
74594;BME280;63097;51.872;4.460;2023-09-19T10:51:51;100956.22;;;19.48;69.69
74594;BME280;63097;51.872;4.460;2023-09-19T10:54:20;100965.78;;;19.79;68.81
74594;BME280;63097;51.872;4.460;2023-09-19T10:56:48;100959.94;;;19.43;70.50
74594;BME280;63097;51.872;4.460;2023-09-19T10:59:15;100951.31;;;19.02;72.01
74594;BME280;63097;51.872;4.460;2023-09-19T11:01:51;100975.31;;;19.00;71.64
74594;BME280;63097;51.872;4.460;2023-09-19T11:04:33;100955.81;;;19.03;72.54
74594;BME280;63097;51.872;4.460;2023-09-19T11:09:43;100950.47;;;20.53;65.45
74594;BME280;63097;51.872;4.460;2023-09-19T11:12:09;100953.41;;;20.34;66.87
74594;BME280;63097;51.872;4.460;2023-09-19T11:14:38;100953.16;;;20.03;67.71
74594;BME280;63097;51.872;4.460;2023-09-19T11:30:40;100944.22;;;18.49;74.97
74594;BME280;63097;51.872;4.460;2023-09-19T11:33:22;100931.19;;;18.53;75.32
74594;BME280;63097;51.872;4.460;2023-09-19T11:46:24;100925.72;;;18.80;73.55
74594;BME280;63097;51.872;4.460;2023-09-19T11:48:50;100932.28;;;18.76;73.55
74594;BME280;63097;51.872;4.460;2023-09-19T11:51:24;100933.41;;;18.56;74.08
74594;BME280;63097;51.872;4.460;2023-09-19T11:53:51;100914.16;;;18.63;75.20
74594;BME280;63097;51.872;4.460;2023-09-19T11:56:18;100934.41;;;18.65;74.50
74594;BME280;63097;51.872;4.460;2023-09-19T11:58:45;100938.97;;;18.61;75.40
74594;BME280;63097;51.872;4.460;2023-09-19T12:01:13;100931.50;;;18.89;74.75
74594;BME280;63097;51.872;4.460;2023-09-19T12:03:42;100921.59;;;19.88;71.20
74594;BME280;63097;51.872;4.460;2023-09-19T12:06:11;100928.78;;;20.08;70.19
74594;BME280;63097;51.872;4.460;2023-09-19T12:08:39;100945.31;;;20.00;69.96
74594;BME280;63097;51.872;4.460;2023-09-19T12:11:04;100939.25;;;19.93;71.25
74594;BME280;63097;51.872;4.460;2023-09-19T12:13:29;100930.06;;;20.15;70.44
74594;BME280;63097;51.872;4.460;2023-09-19T12:15:55;100929.19;;;20.15;71.38
74594;BME280;63097;51.872;4.460;2023-09-19T12:18:30;100949.88;;;19.69;71.50
74594;BME280;63097;51.872;4.460;2023-09-19T12:20:55;100931.09;;;19.92;71.69
74594;BME280;63097;51.872;4.460;2023-09-19T12:23:20;100939.69;;;20.00;70.83
74594;BME280;63097;51.872;4.460;2023-09-19T12:25:46;100937.91;;;20.45;70.06
74594;BME280;63097;51.872;4.460;2023-09-19T12:28:11;100944.81;;;20.12;70.54
74594;BME280;63097;51.872;4.460;2023-09-19T12:30:36;100942.41;;;19.92;71.09
74594;BME280;63097;51.872;4.460;2023-09-19T12:33:02;100950.16;;;20.41;70.96
74594;BME280;63097;51.872;4.460;2023-09-19T12:35:32;100951.34;;;20.75;69.99
74594;BME280;63097;51.872;4.460;2023-09-19T12:37:57;100934.31;;;21.99;67.37
74594;BME280;63097;51.872;4.460;2023-09-19T12:40:24;100926.63;;;21.17;67.71
74594;BME280;63097;51.872;4.460;2023-09-19T12:42:49;100937.75;;;21.13;67.18
74594;BME280;63097;51.872;4.460;2023-09-19T12:45:15;100930.38;;;21.26;68.41
74594;BME280;63097;51.872;4.460;2023-09-19T12:51:08;100926.50;;;20.99;66.98
74594;BME280;63097;51.872;4.460;2023-09-19T12:53:35;100918.00;;;20.50;68.23
74594;BME280;63097;51.872;4.460;2023-09-19T12:56:00;100931.44;;;20.80;67.88
74594;BME280;63097;51.872;4.460;2023-09-19T12:58:26;100931.88;;;20.74;68.29
74594;BME280;63097;51.872;4.460;2023-09-19T13:00:51;100922.56;;;20.73;67.38
74594;BME280;63097;51.872;4.460;2023-09-19T13:03:29;100917.63;;;20.16;68.95
74594;BME280;63097;51.872;4.460;2023-09-19T13:05:56;100943.47;;;19.96;70.71
74594;BME280;63097;51.872;4.460;2023-09-19T13:08:25;100941.78;;;19.49;71.36
74594;BME280;63097;51.872;4.460;2023-09-19T13:11:12;100919.00;;;19.46;72.85
74594;BME280;63097;51.872;4.460;2023-09-19T13:14:14;100915.84;;;19.34;73.01
74594;BME280;63097;51.872;4.460;2023-09-19T13:17:03;100917.75;;;19.20;71.31
74594;BME280;63097;51.872;4.460;2023-09-19T13:19:54;100919.16;;;19.36;72.80
74594;BME280;63097;51.872;4.460;2023-09-19T13:22:42;100911.38;;;19.46;72.34
74594;BME280;63097;51.872;4.460;2023-09-19T13:25:18;100908.84;;;19.31;72.92
74594;BME280;63097;51.872;4.460;2023-09-19T13:27:45;100899.28;;;19.27;72.21
74594;BME280;63097;51.872;4.460;2023-09-19T13:30:11;100928.19;;;19.19;72.59
74594;BME280;63097;51.872;4.460;2023-09-19T13:32:37;100916.06;;;19.19;72.48
74594;BME280;63097;51.872;4.460;2023-09-19T13:35:02;100929.44;;;19.13;73.63